createdAt,value
2018-09-18T00:00:50.097Z,17.10
2018-09-18T00:03:18.331Z,17.00
2018-09-18T00:05:46.521Z,17.00
2018-09-18T00:08:14.718Z,17.10
2018-09-18T00:10:42.925Z,17.00
2018-09-18T00:13:11.144Z,17.00
2018-09-18T00:15:39.309Z,16.90
2018-09-18T00:18:07.533Z,16.90
2018-09-18T00:20:35.701Z,16.90
2018-09-18T00:23:03.924Z,16.80
2018-09-18T00:25:32.134Z,16.80
2018-09-18T00:28:00.369Z,16.70
2018-09-18T00:30:28.541Z,16.70
2018-09-18T00:32:56.801Z,16.70
2018-09-18T00:35:24.967Z,16.60
2018-09-18T00:37:53.196Z,16.60
2018-09-18T00:40:21.400Z,16.60
2018-09-18T00:42:52.675Z,16.60
2018-09-18T00:45:20.849Z,16.60
2018-09-18T00:47:49.045Z,16.70
2018-09-18T00:50:17.229Z,16.70
2018-09-18T00:52:45.440Z,16.80
2018-09-18T00:55:13.616Z,16.70
2018-09-18T00:57:41.840Z,16.60
2018-09-18T01:00:10.027Z,16.70
2018-09-18T01:02:38.205Z,16.70
2018-09-18T01:05:06.380Z,16.70
2018-09-18T01:07:34.705Z,16.70
2018-09-18T01:10:02.926Z,16.70
2018-09-18T01:12:31.132Z,16.70
2018-09-18T01:14:59.477Z,16.80
2018-09-18T01:17:27.653Z,16.70
2018-09-18T01:19:55.860Z,16.70
2018-09-18T01:22:24.041Z,16.60
2018-09-18T01:24:52.278Z,16.60
2018-09-18T01:27:20.453Z,16.60
2018-09-18T01:29:48.669Z,16.50
2018-09-18T01:32:16.934Z,16.60
2018-09-18T01:34:45.201Z,16.60
2018-09-18T01:37:13.389Z,16.60
2018-09-18T01:39:41.601Z,16.10
2018-09-18T01:42:09.837Z,16.00
2018-09-18T01:44:38.053Z,16.10
2018-09-18T01:47:06.246Z,16.10
2018-09-18T01:49:34.493Z,16.10
2018-09-18T01:52:02.692Z,16.00
2018-09-18T01:54:30.936Z,15.90
2018-09-18T01:56:59.253Z,15.80
2018-09-18T01:59:27.588Z,15.80
2018-09-18T02:01:55.765Z,15.80
2018-09-18T02:04:23.953Z,15.80
2018-09-18T02:06:52.147Z,15.70
2018-09-18T02:09:20.352Z,15.70
2018-09-18T02:11:48.574Z,15.80
2018-09-18T02:14:16.816Z,15.90
2018-09-18T02:16:44.981Z,15.80
2018-09-18T02:19:13.184Z,15.80
2018-09-18T02:21:41.357Z,15.90
2018-09-18T02:24:09.562Z,15.90
2018-09-18T02:26:37.797Z,15.90
2018-09-18T02:29:06.076Z,16.00
2018-09-18T02:31:34.249Z,16.00
2018-09-18T02:34:02.461Z,16.00
2018-09-18T02:36:30.697Z,15.90
2018-09-18T02:38:58.862Z,15.80
2018-09-18T02:41:27.109Z,15.80
2018-09-18T02:43:55.305Z,15.80
2018-09-18T02:46:30.353Z,15.80
2018-09-18T02:48:58.517Z,15.80
2018-09-18T02:51:26.716Z,15.70
2018-09-18T02:53:54.872Z,15.70
2018-09-18T02:56:23.088Z,15.70
2018-09-18T02:58:51.253Z,15.70
2018-09-18T03:01:19.460Z,15.60
2018-09-18T03:03:47.641Z,15.40
2018-09-18T03:06:15.854Z,15.30
2018-09-18T03:08:44.024Z,15.30
2018-09-18T03:11:12.295Z,15.40
2018-09-18T03:13:40.472Z,15.40
2018-09-18T03:16:08.908Z,15.40
2018-09-18T03:18:37.145Z,15.30
2018-09-18T03:21:05.470Z,15.40
2018-09-18T03:23:33.631Z,15.40
2018-09-18T03:26:01.859Z,15.50
2018-09-18T03:28:30.013Z,15.50
2018-09-18T03:30:58.277Z,15.50
2018-09-18T03:33:26.441Z,15.40
2018-09-18T03:35:54.673Z,15.30
2018-09-18T03:38:22.833Z,15.20
2018-09-18T03:40:51.025Z,15.20
2018-09-18T03:43:19.210Z,15.30
2018-09-18T03:45:47.697Z,15.30
2018-09-18T03:48:15.891Z,15.40
2018-09-18T03:50:44.123Z,15.40
2018-09-18T03:53:12.293Z,15.40
2018-09-18T03:55:40.504Z,15.40
2018-09-18T03:58:08.664Z,15.50
2018-09-18T04:00:36.876Z,15.50
2018-09-18T04:03:05.193Z,15.50
2018-09-18T04:05:33.364Z,15.40
2018-09-18T04:08:01.562Z,15.50
2018-09-18T04:10:29.797Z,15.50
2018-09-18T04:12:57.989Z,15.40
2018-09-18T04:15:26.261Z,15.30
2018-09-18T04:17:54.892Z,15.20
2018-09-18T04:20:23.181Z,15.10
2018-09-18T04:22:51.379Z,15.10
2018-09-18T04:25:19.553Z,15.20
2018-09-18T04:27:47.787Z,15.20
2018-09-18T04:30:15.953Z,15.20
2018-09-18T04:32:44.157Z,15.10
2018-09-18T04:35:12.360Z,15.00
2018-09-18T04:37:40.642Z,15.00
2018-09-18T04:40:08.865Z,15.00
2018-09-18T04:42:37.081Z,14.90
2018-09-18T04:45:05.348Z,14.90
2018-09-18T04:47:33.541Z,14.90
2018-09-18T04:50:01.722Z,14.90
2018-09-18T04:52:29.944Z,14.90
2018-09-18T04:54:58.179Z,14.90
2018-09-18T04:57:26.387Z,14.80
2018-09-18T04:59:54.584Z,14.90
2018-09-18T05:02:22.769Z,14.90
2018-09-18T05:04:51.033Z,14.90
2018-09-18T05:07:19.253Z,14.80
2018-09-18T05:09:47.436Z,14.90
2018-09-18T05:12:15.635Z,14.90
2018-09-18T05:14:43.848Z,14.80
2018-09-18T05:17:12.065Z,14.70
2018-09-18T05:19:40.257Z,14.70
2018-09-18T05:22:08.449Z,14.70
2018-09-18T05:24:36.691Z,14.90
2018-09-18T05:27:04.958Z,15.00
2018-09-18T05:29:33.186Z,15.10
2018-09-18T05:32:01.373Z,15.20
2018-09-18T05:34:29.669Z,15.30
2018-09-18T05:36:57.852Z,15.50
2018-09-18T05:39:26.061Z,15.60
2018-09-18T05:41:54.297Z,15.70
2018-09-18T05:44:22.637Z,15.80
2018-09-18T05:46:50.920Z,15.90
2018-09-18T05:49:19.236Z,15.90
2018-09-18T05:51:47.705Z,16.00
2018-09-18T05:54:15.925Z,16.10
2018-09-18T05:56:44.121Z,16.20
2018-09-18T05:59:12.336Z,16.40
2018-09-18T06:01:40.543Z,16.40
2018-09-18T06:04:08.812Z,16.50
2018-09-18T06:06:37.064Z,16.50
2018-09-18T06:09:08.128Z,16.60
2018-09-18T06:11:36.392Z,16.60
2018-09-18T06:14:04.628Z,16.70
2018-09-18T06:16:33.098Z,16.90
2018-09-18T06:19:01.438Z,17.00
2018-09-18T06:21:29.647Z,17.10
2018-09-18T06:23:57.949Z,17.30
2018-09-18T06:26:26.201Z,17.50
2018-09-18T06:28:54.443Z,17.50
2018-09-18T06:31:22.638Z,17.80
2018-09-18T06:33:51.358Z,17.90
2018-09-18T06:36:19.748Z,17.90
2018-09-18T06:38:48.047Z,18.00
2018-09-18T06:41:16.265Z,17.90
2018-09-18T06:43:44.500Z,17.80
2018-09-18T06:46:12.719Z,18.00
2018-09-18T06:48:40.922Z,18.20
2018-09-18T06:51:09.159Z,18.40
2018-09-18T06:53:37.378Z,18.60
2018-09-18T06:56:05.633Z,18.60
2018-09-18T06:58:33.809Z,18.70
2018-09-18T07:01:02.013Z,19.00
2018-09-18T07:03:30.224Z,19.20
2018-09-18T07:05:58.475Z,19.40
2018-09-18T07:08:26.694Z,19.40
2018-09-18T07:10:54.912Z,19.40
2018-09-18T07:13:23.084Z,19.50
2018-09-18T07:15:51.320Z,19.70
2018-09-18T07:18:19.493Z,19.80
2018-09-18T07:20:47.718Z,19.70
2018-09-18T07:23:15.892Z,20.00
2018-09-18T07:25:44.125Z,20.30
2018-09-18T07:28:13.239Z,20.60
2018-09-18T07:30:41.477Z,20.90
2018-09-18T07:33:09.747Z,20.90
2018-09-18T07:35:38.097Z,21.20
2018-09-18T07:38:06.394Z,21.60
2018-09-18T07:40:34.698Z,21.70
2018-09-18T07:43:02.933Z,21.80
2018-09-18T07:45:31.202Z,21.90
2018-09-18T07:47:59.391Z,21.80
2018-09-18T07:50:27.601Z,22.00
2018-09-18T07:52:55.871Z,22.20
2018-09-18T07:55:24.120Z,22.20
2018-09-18T07:57:52.280Z,22.50
2018-09-18T08:00:20.535Z,22.50
2018-09-18T08:02:48.705Z,22.60
2018-09-18T08:05:16.973Z,22.60
2018-09-18T08:07:45.189Z,22.70
2018-09-18T08:10:13.454Z,22.80
2018-09-18T08:12:41.670Z,22.90
2018-09-18T08:15:09.853Z,23.10
2018-09-18T08:17:38.066Z,23.20
2018-09-18T08:20:06.321Z,23.30
2018-09-18T08:22:34.524Z,23.40
2018-09-18T08:25:02.742Z,23.40
2018-09-18T08:27:30.981Z,23.10
2018-09-18T08:29:59.185Z,23.10
2018-09-18T08:32:27.512Z,23.30
2018-09-18T08:34:55.685Z,23.50
2018-09-18T08:37:23.934Z,23.70
2018-09-18T08:39:52.119Z,23.90
2018-09-18T08:42:20.415Z,24.10
2018-09-18T08:44:48.704Z,24.30
2018-09-18T08:47:16.917Z,24.20
2018-09-18T08:49:45.161Z,24.30
2018-09-18T08:52:13.428Z,24.10
2018-09-18T08:54:41.701Z,24.20
2018-09-18T08:57:09.990Z,24.20
2018-09-18T08:59:38.255Z,24.30
2018-09-18T09:02:06.581Z,24.40
2018-09-18T09:04:34.837Z,24.60
2018-09-18T09:07:03.097Z,24.80
2018-09-18T09:09:31.350Z,25.00
2018-09-18T09:11:59.542Z,24.50
2018-09-18T09:14:27.908Z,24.30
2018-09-18T09:16:56.140Z,24.50
2018-09-18T09:19:24.413Z,24.70
2018-09-18T09:21:52.748Z,24.90
2018-09-18T09:24:20.866Z,25.00
2018-09-18T09:26:49.186Z,25.20
2018-09-18T09:29:17.376Z,25.20
2018-09-18T09:31:45.618Z,25.30
2018-09-18T09:34:13.831Z,25.50
2018-09-18T09:36:42.011Z,25.70
2018-09-18T09:39:11.514Z,25.70
2018-09-18T09:41:39.785Z,25.80
2018-09-18T09:44:08.051Z,25.90
2018-09-18T09:46:36.245Z,25.80
2018-09-18T09:49:04.481Z,25.70
2018-09-18T09:51:32.695Z,25.40
2018-09-18T09:54:01.467Z,25.60
2018-09-18T09:56:29.657Z,25.50
2018-09-18T09:58:57.885Z,25.70
2018-09-18T10:01:31.552Z,25.90
2018-09-18T10:03:59.831Z,25.90
2018-09-18T10:06:28.049Z,25.90
2018-09-18T10:08:56.337Z,25.90
2018-09-18T10:11:24.538Z,26.00
2018-09-18T10:13:52.767Z,26.10
2018-09-18T10:16:20.957Z,26.10
2018-09-18T10:18:49.205Z,26.10
2018-09-18T10:21:17.395Z,26.10
2018-09-18T10:23:45.612Z,26.10
2018-09-18T10:26:13.849Z,26.20
2018-09-18T10:28:42.047Z,26.30
2018-09-18T10:31:10.213Z,26.50
2018-09-18T10:33:38.501Z,26.20
2018-09-18T10:36:06.733Z,25.90
2018-09-18T10:38:34.961Z,26.10
2018-09-18T10:41:03.286Z,26.20
2018-09-18T10:43:31.486Z,26.40
2018-09-18T10:45:59.691Z,26.50
2018-09-18T10:48:27.921Z,26.60
2018-09-18T10:50:56.349Z,26.80
2018-09-18T10:53:24.505Z,26.70
2018-09-18T10:55:52.721Z,26.70
2018-09-18T10:58:20.921Z,26.80
2018-09-18T11:00:49.180Z,26.80
2018-09-18T11:03:17.401Z,27.00
2018-09-18T11:05:45.621Z,27.10
2018-09-18T11:08:13.867Z,27.20
2018-09-18T11:10:42.089Z,27.30
2018-09-18T11:13:10.311Z,27.40
2018-09-18T11:15:38.675Z,27.50
2018-09-18T11:18:06.830Z,27.60
2018-09-18T11:20:35.155Z,27.60
2018-09-18T11:23:03.418Z,27.80
2018-09-18T11:25:31.655Z,27.70
2018-09-18T11:27:59.856Z,27.90
2018-09-18T11:30:28.090Z,28.00
2018-09-18T11:32:56.364Z,28.30
2018-09-18T11:35:24.509Z,28.40
2018-09-18T11:37:52.722Z,28.40
2018-09-18T11:40:21.015Z,28.40
2018-09-18T11:42:49.211Z,28.70
2018-09-18T11:45:17.417Z,28.90
2018-09-18T11:47:45.632Z,28.80
2018-09-18T11:50:13.866Z,28.70
2018-09-18T11:52:42.161Z,28.50
2018-09-18T11:55:10.345Z,28.70
2018-09-18T11:57:38.607Z,28.70
2018-09-18T12:00:06.936Z,28.70
2018-09-18T12:02:35.235Z,28.70
2018-09-18T12:05:03.568Z,28.80
2018-09-18T12:07:31.749Z,29.10
2018-09-18T12:10:00.069Z,29.30
2018-09-18T12:12:28.394Z,29.30
2018-09-18T12:14:56.690Z,29.40
2018-09-18T12:17:24.967Z,29.60
2018-09-18T12:19:53.217Z,29.50
2018-09-18T12:22:21.502Z,29.50
2018-09-18T12:24:49.794Z,29.50
2018-09-18T12:27:18.361Z,29.50
2018-09-18T12:29:46.629Z,29.40
2018-09-18T12:32:14.881Z,29.40
2018-09-18T12:34:43.065Z,29.60
2018-09-18T12:37:11.282Z,29.50
2018-09-18T12:39:39.553Z,29.40
2018-09-18T12:42:08.028Z,29.40
2018-09-18T12:44:36.136Z,29.60
2018-09-18T12:47:04.415Z,29.60
2018-09-18T12:49:32.720Z,29.80
2018-09-18T12:52:00.936Z,29.80
2018-09-18T12:54:29.129Z,29.80
2018-09-18T12:56:57.498Z,29.70
2018-09-18T12:59:25.776Z,29.70
2018-09-18T13:01:54.094Z,29.70
2018-09-18T13:04:22.348Z,29.80
2018-09-18T13:06:50.594Z,30.10
2018-09-18T13:09:18.829Z,30.10
2018-09-18T13:11:47.060Z,29.80
2018-09-18T13:14:15.358Z,29.60
2018-09-18T13:16:43.536Z,29.60
2018-09-18T13:19:11.773Z,29.60
2018-09-18T13:21:39.961Z,29.60
2018-09-18T13:24:08.169Z,29.40
2018-09-18T13:26:36.418Z,29.60
2018-09-18T13:29:04.615Z,29.60
2018-09-18T13:31:32.825Z,29.20
2018-09-18T13:34:01.088Z,29.00
2018-09-18T13:36:29.382Z,28.90
2018-09-18T13:38:57.629Z,28.90
2018-09-18T13:41:25.986Z,28.90
2018-09-18T13:43:54.122Z,29.00
2018-09-18T13:46:22.404Z,29.10
2018-09-18T13:48:50.597Z,29.20
2018-09-18T13:51:18.778Z,29.30
2018-09-18T13:53:47.950Z,29.30
2018-09-18T13:56:16.227Z,29.30
2018-09-18T13:58:44.393Z,29.20
2018-09-18T14:01:12.709Z,29.00
2018-09-18T14:03:40.833Z,29.10
2018-09-18T14:06:09.166Z,29.10
2018-09-18T14:08:37.356Z,29.10
2018-09-18T14:11:05.577Z,28.90
2018-09-18T14:13:33.818Z,28.90
2018-09-18T14:16:02.826Z,28.80
2018-09-18T14:18:31.110Z,28.80
2018-09-18T14:20:59.325Z,28.80
2018-09-18T14:23:27.541Z,28.80
2018-09-18T14:25:55.741Z,28.90
2018-09-18T14:28:24.062Z,28.80
2018-09-18T14:30:52.276Z,28.70
2018-09-18T14:33:20.517Z,28.60
2018-09-18T14:35:48.808Z,28.40
2018-09-18T14:38:17.046Z,28.20
2018-09-18T14:40:45.287Z,28.10
2018-09-18T14:43:13.663Z,28.10
2018-09-18T14:45:41.865Z,28.20
2018-09-18T14:48:10.168Z,28.30
2018-09-18T14:50:38.344Z,28.20
2018-09-18T14:53:06.575Z,28.10
2018-09-18T14:55:34.887Z,27.80
2018-09-18T14:58:03.270Z,27.40
2018-09-18T15:00:31.529Z,27.10
2018-09-18T15:02:59.750Z,27.00
2018-09-18T15:05:27.966Z,26.90
2018-09-18T15:07:56.184Z,26.80
2018-09-18T15:10:24.421Z,26.70
2018-09-18T15:12:52.633Z,26.60
2018-09-18T15:15:20.865Z,26.60
2018-09-18T15:17:49.096Z,26.60
2018-09-18T15:20:17.357Z,26.60
2018-09-18T15:22:45.916Z,26.70
2018-09-18T15:25:14.154Z,26.70
2018-09-18T15:27:42.403Z,26.60
2018-09-18T15:30:10.581Z,26.40
2018-09-18T15:32:38.753Z,26.30
2018-09-18T15:35:06.993Z,26.30
2018-09-18T15:37:35.257Z,26.20
2018-09-18T15:40:03.582Z,26.10
2018-09-18T15:42:31.741Z,26.00
2018-09-18T15:44:59.942Z,25.90
2018-09-18T15:47:28.145Z,25.80
2018-09-18T15:49:59.308Z,25.60
2018-09-18T15:52:27.563Z,25.40
2018-09-18T15:54:55.773Z,25.30
2018-09-18T15:57:23.970Z,25.20
2018-09-18T15:59:52.138Z,25.10
2018-09-18T16:02:20.366Z,25.00
2018-09-18T16:04:48.566Z,24.90
2018-09-18T16:07:16.720Z,24.70
2018-09-18T16:09:44.975Z,24.70
2018-09-18T16:12:13.148Z,24.70
2018-09-18T16:14:41.369Z,24.70
2018-09-18T16:17:09.624Z,24.70
2018-09-18T16:19:37.805Z,24.60
2018-09-18T16:22:06.052Z,24.50
2018-09-18T16:24:34.200Z,24.50
2018-09-18T16:27:02.413Z,24.50
2018-09-18T16:29:30.684Z,24.40
2018-09-18T16:31:58.841Z,24.40
2018-09-18T16:34:27.067Z,24.40
2018-09-18T16:36:55.330Z,24.40
2018-09-18T16:39:23.530Z,24.40
2018-09-18T16:41:51.791Z,24.30
2018-09-18T16:44:20.026Z,24.20
2018-09-18T16:46:48.312Z,24.10
2018-09-18T16:49:16.495Z,24.10
2018-09-18T16:51:44.738Z,24.00
2018-09-18T16:54:13.006Z,24.00
2018-09-18T16:56:41.231Z,24.00
2018-09-18T16:59:09.562Z,24.00
2018-09-18T17:01:37.815Z,23.90
2018-09-18T17:04:06.174Z,23.80
2018-09-18T17:06:34.447Z,23.60
2018-09-18T17:09:03.184Z,23.50
2018-09-18T17:11:31.372Z,23.10
2018-09-18T17:13:59.580Z,21.80
2018-09-18T17:16:27.743Z,19.70
2018-09-18T17:18:56.028Z,18.30
2018-09-18T17:21:24.217Z,17.30
2018-09-18T17:23:52.386Z,17.10
2018-09-18T17:26:20.586Z,17.30
2018-09-18T17:28:48.884Z,17.80
2018-09-18T17:31:17.770Z,17.90
2018-09-18T17:33:46.077Z,17.90
2018-09-18T17:36:14.261Z,17.90
2018-09-18T17:38:42.530Z,17.70
2018-09-18T17:41:10.749Z,17.70
2018-09-18T17:43:39.028Z,17.60
2018-09-18T17:46:07.356Z,17.60
2018-09-18T17:48:35.565Z,17.40
2018-09-18T17:51:03.929Z,17.30
2018-09-18T17:53:32.272Z,17.20
2018-09-18T17:56:00.461Z,17.20
2018-09-18T17:58:28.677Z,17.20
2018-09-18T18:00:56.913Z,17.10
2018-09-18T18:03:25.074Z,17.10
2018-09-18T18:05:53.298Z,17.10
2018-09-18T18:08:21.580Z,17.00
2018-09-18T18:10:49.768Z,17.00
2018-09-18T18:13:18.116Z,16.90
2018-09-18T18:15:46.353Z,17.00
2018-09-18T18:18:14.658Z,17.00
2018-09-18T18:20:42.915Z,16.90
2018-09-18T18:23:11.106Z,16.90
2018-09-18T18:25:39.326Z,16.80
2018-09-18T18:28:07.592Z,16.80
2018-09-18T18:30:36.414Z,16.80
2018-09-18T18:33:04.637Z,17.00
2018-09-18T18:35:32.847Z,17.20
2018-09-18T18:38:01.045Z,17.30
2018-09-18T18:40:29.220Z,17.40
2018-09-18T18:42:57.448Z,17.40
2018-09-18T18:45:25.654Z,17.40
2018-09-18T18:47:53.938Z,17.40
2018-09-18T18:50:22.197Z,17.40
2018-09-18T18:52:50.419Z,17.30
2018-09-18T18:55:19.305Z,17.20
2018-09-18T18:57:47.484Z,17.20
2018-09-18T19:00:15.719Z,17.10
2018-09-18T19:02:43.988Z,17.10
2018-09-18T19:05:12.704Z,17.00
2018-09-18T19:07:40.935Z,17.00
2018-09-18T19:10:09.671Z,16.90
2018-09-18T19:12:37.905Z,17.00
2018-09-18T19:15:06.155Z,17.00
2018-09-18T19:17:34.501Z,17.00
2018-09-18T19:20:02.761Z,17.00
2018-09-18T19:22:30.949Z,17.10
2018-09-18T19:24:59.162Z,17.00
2018-09-18T19:27:27.584Z,17.00
2018-09-18T19:29:55.756Z,17.00
2018-09-18T19:32:24.952Z,17.00
2018-09-18T19:34:57.515Z,17.00
2018-09-18T19:37:26.493Z,17.00
2018-09-18T19:39:54.702Z,17.10
2018-09-18T19:42:22.960Z,17.10
2018-09-18T19:44:51.685Z,17.10
2018-09-18T19:47:20.540Z,17.10
2018-09-18T19:49:49.313Z,17.10
2018-09-18T19:52:17.581Z,17.20
2018-09-18T19:54:45.753Z,17.20
2018-09-18T19:57:14.854Z,17.20
2018-09-18T19:59:43.905Z,17.20
2018-09-18T20:02:13.245Z,17.30
2018-09-18T20:04:42.818Z,17.30
2018-09-18T20:07:11.636Z,17.20
2018-09-18T20:09:40.559Z,17.10
2018-09-18T20:12:09.857Z,16.90
2018-09-18T20:14:39.817Z,16.90
2018-09-18T20:17:08.772Z,16.90
2018-09-18T20:19:38.128Z,16.80
2018-09-18T20:22:09.068Z,16.70
2018-09-18T20:24:38.341Z,16.70
2018-09-18T20:27:07.687Z,16.80
2018-09-18T20:29:37.318Z,16.80
2018-09-18T20:32:06.247Z,16.60
2018-09-18T20:34:35.275Z,16.50
2018-09-18T20:37:04.733Z,16.60
2018-09-18T20:39:33.768Z,16.60
2018-09-18T20:42:02.476Z,16.70
2018-09-18T20:44:31.667Z,16.70
2018-09-18T20:47:00.795Z,16.50
2018-09-18T20:49:30.322Z,16.40
2018-09-18T20:51:59.448Z,16.40
2018-09-18T20:54:28.465Z,16.40
2018-09-18T20:56:57.455Z,16.30
2018-09-18T20:59:26.387Z,16.30
2018-09-18T21:01:55.677Z,16.30
2018-09-18T21:04:24.631Z,16.30
2018-09-18T21:06:53.640Z,16.40
2018-09-18T21:09:22.564Z,16.50
2018-09-18T21:11:51.475Z,16.60
2018-09-18T21:14:20.345Z,16.70
2018-09-18T21:16:49.106Z,16.70
2018-09-18T21:19:18.631Z,16.60
2018-09-18T21:21:48.991Z,16.60
2018-09-18T21:24:18.379Z,16.60
2018-09-18T21:26:47.276Z,16.60
2018-09-18T21:29:16.247Z,16.70
2018-09-18T21:31:45.073Z,16.70
2018-09-18T21:34:14.055Z,16.80
2018-09-18T21:36:42.985Z,16.80
2018-09-18T21:39:12.222Z,16.70
2018-09-18T21:41:40.425Z,16.80
2018-09-18T21:44:08.634Z,16.70
2018-09-18T21:46:37.277Z,16.60
2018-09-18T21:49:05.965Z,16.60
2018-09-18T21:51:34.542Z,16.60
2018-09-18T21:54:03.120Z,16.60
2018-09-18T21:56:31.748Z,16.60
2018-09-18T21:58:59.931Z,16.60
2018-09-18T22:01:28.200Z,16.60
2018-09-18T22:03:56.350Z,16.70
2018-09-18T22:06:24.825Z,16.70
2018-09-18T22:08:53.021Z,16.80
2018-09-18T22:11:21.220Z,16.80
2018-09-18T22:13:49.452Z,16.80
2018-09-18T22:16:17.637Z,16.80
2018-09-18T22:18:45.857Z,16.70
2018-09-18T22:21:14.007Z,16.70
2018-09-18T22:23:42.237Z,16.80
2018-09-18T22:26:10.432Z,16.80
2018-09-18T22:28:38.641Z,16.70
2018-09-18T22:31:06.847Z,16.80
2018-09-18T22:33:35.042Z,16.70
2018-09-18T22:36:03.952Z,16.60
2018-09-18T22:38:32.168Z,16.60
2018-09-18T22:41:00.415Z,16.60
2018-09-18T22:43:28.688Z,16.60
2018-09-18T22:45:56.968Z,16.60
2018-09-18T22:48:25.212Z,16.50
2018-09-18T22:50:53.366Z,16.40
2018-09-18T22:53:21.562Z,16.40
2018-09-18T22:55:49.769Z,16.50
2018-09-18T22:58:18.039Z,16.50
2018-09-18T23:00:46.260Z,16.40
2018-09-18T23:03:14.565Z,16.50
2018-09-18T23:05:42.737Z,16.50
2018-09-18T23:08:10.933Z,16.40
2018-09-18T23:10:39.154Z,16.50
2018-09-18T23:13:07.342Z,16.40
2018-09-18T23:15:35.587Z,16.40
2018-09-18T23:18:03.768Z,16.40
2018-09-18T23:20:31.999Z,16.30
2018-09-18T23:23:00.150Z,16.30
2018-09-18T23:25:28.357Z,16.40
2018-09-18T23:27:56.558Z,16.40
2018-09-18T23:30:24.729Z,16.40
2018-09-18T23:32:59.720Z,16.30
2018-09-18T23:35:27.917Z,16.10
2018-09-18T23:37:56.117Z,16.10
2018-09-18T23:40:24.271Z,16.10
2018-09-18T23:42:52.509Z,16.20
2018-09-18T23:45:20.717Z,16.20
2018-09-18T23:47:48.904Z,16.30
2018-09-18T23:50:17.101Z,16.30
2018-09-18T23:52:45.278Z,16.30
2018-09-18T23:55:13.536Z,16.10
2018-09-18T23:57:41.749Z,15.90
